sensor_id;sensor_type;location;lat;lon;timestamp;P1;durP1;ratioP1;P2;durP2;ratioP2
75680;SDS011;64294;49.176;16.626;2023-07-02T00:01:17;7.30;;;4.47;;
75680;SDS011;64294;49.176;16.626;2023-07-02T00:03:45;6.50;;;4.05;;
75680;SDS011;64294;49.176;16.626;2023-07-02T00:06:10;9.32;;;4.38;;
75680;SDS011;64294;49.176;16.626;2023-07-02T00:08:36;6.78;;;4.15;;
75680;SDS011;64294;49.176;16.626;2023-07-02T00:11:01;8.27;;;4.13;;
75680;SDS011;64294;49.176;16.626;2023-07-02T00:13:27;7.05;;;4.13;;
75680;SDS011;64294;49.176;16.626;2023-07-02T00:15:52;7.93;;;4.35;;
75680;SDS011;64294;49.176;16.626;2023-07-02T00:18:18;6.85;;;3.80;;
75680;SDS011;64294;49.176;16.626;2023-07-02T00:20:43;9.27;;;4.22;;
75680;SDS011;64294;49.176;16.626;2023-07-02T00:23:09;7.75;;;4.25;;
75680;SDS011;64294;49.176;16.626;2023-07-02T00:25:35;6.22;;;4.03;;
75680;SDS011;64294;49.176;16.626;2023-07-02T00:28:01;8.98;;;4.50;;
75680;SDS011;64294;49.176;16.626;2023-07-02T00:30:27;7.40;;;4.28;;
75680;SDS011;64294;49.176;16.626;2023-07-02T00:32:52;9.10;;;4.68;;
75680;SDS011;64294;49.176;16.626;2023-07-02T00:35:18;7.50;;;4.50;;
75680;SDS011;64294;49.176;16.626;2023-07-02T00:37:43;7.80;;;4.38;;
75680;SDS011;64294;49.176;16.626;2023-07-02T00:40:09;7.43;;;4.20;;
75680;SDS011;64294;49.176;16.626;2023-07-02T00:42:35;6.60;;;4.20;;
75680;SDS011;64294;49.176;16.626;2023-07-02T00:45:00;7.82;;;4.20;;
75680;SDS011;64294;49.176;16.626;2023-07-02T00:47:35;6.72;;;4.03;;
75680;SDS011;64294;49.176;16.626;2023-07-02T00:50:01;7.15;;;4.20;;
75680;SDS011;64294;49.176;16.626;2023-07-02T00:52:27;8.20;;;4.00;;
75680;SDS011;64294;49.176;16.626;2023-07-02T00:54:53;5.88;;;3.90;;
75680;SDS011;64294;49.176;16.626;2023-07-02T00:57:19;6.03;;;4.03;;
75680;SDS011;64294;49.176;16.626;2023-07-02T00:59:44;7.57;;;4.45;;
75680;SDS011;64294;49.176;16.626;2023-07-02T01:02:10;7.82;;;4.40;;
75680;SDS011;64294;49.176;16.626;2023-07-02T01:04:38;6.10;;;4.15;;
75680;SDS011;64294;49.176;16.626;2023-07-02T01:07:04;7.25;;;4.13;;
75680;SDS011;64294;49.176;16.626;2023-07-02T01:09:33;6.28;;;4.25;;
75680;SDS011;64294;49.176;16.626;2023-07-02T01:12:00;7.65;;;4.53;;
75680;SDS011;64294;49.176;16.626;2023-07-02T01:14:29;8.80;;;4.53;;
75680;SDS011;64294;49.176;16.626;2023-07-02T01:16:57;8.68;;;4.45;;
75680;SDS011;64294;49.176;16.626;2023-07-02T01:22:05;7.35;;;4.80;;
75680;SDS011;64294;49.176;16.626;2023-07-02T01:24:32;8.25;;;4.80;;
75680;SDS011;64294;49.176;16.626;2023-07-02T01:26:57;8.75;;;5.18;;
75680;SDS011;64294;49.176;16.626;2023-07-02T01:29:28;8.32;;;5.63;;
75680;SDS011;64294;49.176;16.626;2023-07-02T01:31:54;7.50;;;5.07;;
75680;SDS011;64294;49.176;16.626;2023-07-02T01:34:20;9.90;;;4.95;;
75680;SDS011;64294;49.176;16.626;2023-07-02T01:36:45;8.57;;;4.88;;
75680;SDS011;64294;49.176;16.626;2023-07-02T01:39:11;10.15;;;5.63;;
75680;SDS011;64294;49.176;16.626;2023-07-02T01:41:41;10.93;;;5.70;;
75680;SDS011;64294;49.176;16.626;2023-07-02T01:44:07;9.13;;;6.10;;
75680;SDS011;64294;49.176;16.626;2023-07-02T01:46:33;9.02;;;6.10;;
75680;SDS011;64294;49.176;16.626;2023-07-02T01:48:58;11.77;;;5.50;;
75680;SDS011;64294;49.176;16.626;2023-07-02T01:51:24;8.43;;;5.63;;
75680;SDS011;64294;49.176;16.626;2023-07-02T01:53:49;8.20;;;5.30;;
75680;SDS011;64294;49.176;16.626;2023-07-02T01:56:14;8.30;;;5.55;;
75680;SDS011;64294;49.176;16.626;2023-07-02T01:58:40;8.90;;;5.32;;
75680;SDS011;64294;49.176;16.626;2023-07-02T02:01:05;9.13;;;5.22;;
75680;SDS011;64294;49.176;16.626;2023-07-02T02:03:30;8.38;;;5.10;;
75680;SDS011;64294;49.176;16.626;2023-07-02T02:05:56;10.82;;;4.80;;
75680;SDS011;64294;49.176;16.626;2023-07-02T02:08:21;9.60;;;5.22;;
75680;SDS011;64294;49.176;16.626;2023-07-02T02:10:46;9.50;;;5.55;;
75680;SDS011;64294;49.176;16.626;2023-07-02T02:13:12;10.57;;;5.50;;
75680;SDS011;64294;49.176;16.626;2023-07-02T02:15:37;10.38;;;5.90;;
75680;SDS011;64294;49.176;16.626;2023-07-02T02:18:03;7.75;;;5.65;;
75680;SDS011;64294;49.176;16.626;2023-07-02T02:20:28;25.98;;;7.40;;
75680;SDS011;64294;49.176;16.626;2023-07-02T02:22:54;10.38;;;5.55;;
75680;SDS011;64294;49.176;16.626;2023-07-02T02:25:19;9.10;;;5.57;;
75680;SDS011;64294;49.176;16.626;2023-07-02T02:27:45;10.05;;;5.47;;
75680;SDS011;64294;49.176;16.626;2023-07-02T02:30:10;9.55;;;5.55;;
75680;SDS011;64294;49.176;16.626;2023-07-02T02:32:36;10.32;;;6.13;;
75680;SDS011;64294;49.176;16.626;2023-07-02T02:35:02;8.90;;;5.60;;
75680;SDS011;64294;49.176;16.626;2023-07-02T02:37:28;12.57;;;5.60;;
75680;SDS011;64294;49.176;16.626;2023-07-02T02:39:55;9.80;;;5.70;;
75680;SDS011;64294;49.176;16.626;2023-07-02T02:42:22;8.00;;;5.57;;
75680;SDS011;64294;49.176;16.626;2023-07-02T02:44:47;8.82;;;5.32;;
75680;SDS011;64294;49.176;16.626;2023-07-02T02:47:13;9.77;;;5.72;;
75680;SDS011;64294;49.176;16.626;2023-07-02T02:49:38;7.78;;;5.18;;
75680;SDS011;64294;49.176;16.626;2023-07-02T02:52:05;12.38;;;5.50;;
75680;SDS011;64294;49.176;16.626;2023-07-02T02:54:30;9.27;;;5.82;;
75680;SDS011;64294;49.176;16.626;2023-07-02T02:56:56;8.32;;;5.45;;
75680;SDS011;64294;49.176;16.626;2023-07-02T02:59:21;8.85;;;5.30;;
75680;SDS011;64294;49.176;16.626;2023-07-02T03:01:46;9.27;;;6.25;;
75680;SDS011;64294;49.176;16.626;2023-07-02T03:04:12;8.82;;;5.40;;
75680;SDS011;64294;49.176;16.626;2023-07-02T03:06:37;8.52;;;5.65;;
75680;SDS011;64294;49.176;16.626;2023-07-02T03:09:02;10.98;;;5.88;;
75680;SDS011;64294;49.176;16.626;2023-07-02T03:11:28;15.02;;;7.45;;
75680;SDS011;64294;49.176;16.626;2023-07-02T03:13:53;11.23;;;6.90;;
75680;SDS011;64294;49.176;16.626;2023-07-02T03:16:19;10.95;;;7.07;;
75680;SDS011;64294;49.176;16.626;2023-07-02T03:18:46;11.18;;;6.53;;
75680;SDS011;64294;49.176;16.626;2023-07-02T03:21:12;11.88;;;6.65;;
75680;SDS011;64294;49.176;16.626;2023-07-02T03:23:37;15.30;;;6.93;;
75680;SDS011;64294;49.176;16.626;2023-07-02T03:26:02;14.00;;;6.60;;
75680;SDS011;64294;49.176;16.626;2023-07-02T03:28:28;16.52;;;6.50;;
75680;SDS011;64294;49.176;16.626;2023-07-02T03:30:54;14.18;;;6.95;;
75680;SDS011;64294;49.176;16.626;2023-07-02T03:33:19;15.93;;;6.70;;
75680;SDS011;64294;49.176;16.626;2023-07-02T03:35:44;10.88;;;6.10;;
75680;SDS011;64294;49.176;16.626;2023-07-02T03:38:10;14.55;;;6.75;;
75680;SDS011;64294;49.176;16.626;2023-07-02T03:40:35;12.02;;;6.00;;
75680;SDS011;64294;49.176;16.626;2023-07-02T03:43:01;10.48;;;6.28;;
75680;SDS011;64294;49.176;16.626;2023-07-02T03:45:26;9.63;;;6.43;;
75680;SDS011;64294;49.176;16.626;2023-07-02T03:47:51;10.73;;;6.38;;
75680;SDS011;64294;49.176;16.626;2023-07-02T03:50:17;9.43;;;6.10;;
75680;SDS011;64294;49.176;16.626;2023-07-02T03:52:43;12.50;;;6.10;;
75680;SDS011;64294;49.176;16.626;2023-07-02T03:55:08;12.43;;;6.18;;
75680;SDS011;64294;49.176;16.626;2023-07-02T03:57:34;10.88;;;5.70;;
75680;SDS011;64294;49.176;16.626;2023-07-02T03:59:59;13.82;;;5.85;;
75680;SDS011;64294;49.176;16.626;2023-07-02T04:02:24;17.00;;;5.70;;
75680;SDS011;64294;49.176;16.626;2023-07-02T04:04:50;16.38;;;6.00;;
75680;SDS011;64294;49.176;16.626;2023-07-02T04:07:15;15.93;;;5.50;;
75680;SDS011;64294;49.176;16.626;2023-07-02T04:09:41;12.07;;;5.50;;
75680;SDS011;64294;49.176;16.626;2023-07-02T04:12:09;14.55;;;5.57;;
75680;SDS011;64294;49.176;16.626;2023-07-02T04:14:35;12.30;;;5.30;;
75680;SDS011;64294;49.176;16.626;2023-07-02T04:17:01;13.73;;;5.57;;
75680;SDS011;64294;49.176;16.626;2023-07-02T04:19:28;9.73;;;5.32;;
75680;SDS011;64294;49.176;16.626;2023-07-02T04:21:54;11.05;;;5.57;;
75680;SDS011;64294;49.176;16.626;2023-07-02T04:24:19;14.13;;;5.95;;
75680;SDS011;64294;49.176;16.626;2023-07-02T04:26:45;9.40;;;5.60;;
75680;SDS011;64294;49.176;16.626;2023-07-02T04:29:10;10.73;;;5.68;;
75680;SDS011;64294;49.176;16.626;2023-07-02T04:31:36;9.63;;;5.22;;
75680;SDS011;64294;49.176;16.626;2023-07-02T04:34:02;9.13;;;5.22;;
75680;SDS011;64294;49.176;16.626;2023-07-02T04:36:27;10.50;;;5.20;;
75680;SDS011;64294;49.176;16.626;2023-07-02T04:38:53;8.07;;;5.45;;
75680;SDS011;64294;49.176;16.626;2023-07-02T04:41:19;8.95;;;5.32;;
75680;SDS011;64294;49.176;16.626;2023-07-02T04:43:44;9.30;;;5.47;;
75680;SDS011;64294;49.176;16.626;2023-07-02T04:46:10;8.15;;;5.10;;
75680;SDS011;64294;49.176;16.626;2023-07-02T04:48:37;8.00;;;5.20;;
75680;SDS011;64294;49.176;16.626;2023-07-02T04:51:03;10.38;;;5.40;;
75680;SDS011;64294;49.176;16.626;2023-07-02T04:53:28;8.93;;;5.60;;
75680;SDS011;64294;49.176;16.626;2023-07-02T04:55:54;10.52;;;5.10;;
75680;SDS011;64294;49.176;16.626;2023-07-02T04:58:20;10.70;;;5.10;;
75680;SDS011;64294;49.176;16.626;2023-07-02T05:00:45;9.07;;;5.28;;
75680;SDS011;64294;49.176;16.626;2023-07-02T05:03:10;10.57;;;5.40;;
75680;SDS011;64294;49.176;16.626;2023-07-02T05:05:36;9.85;;;5.18;;
75680;SDS011;64294;49.176;16.626;2023-07-02T05:08:01;8.68;;;4.90;;
75680;SDS011;64294;49.176;16.626;2023-07-02T05:10:29;10.52;;;5.78;;
75680;SDS011;64294;49.176;16.626;2023-07-02T05:12:55;10.82;;;5.47;;
75680;SDS011;64294;49.176;16.626;2023-07-02T05:15:20;11.30;;;5.45;;
75680;SDS011;64294;49.176;16.626;2023-07-02T05:17:46;12.23;;;5.50;;
75680;SDS011;64294;49.176;16.626;2023-07-02T05:20:12;9.20;;;5.90;;
75680;SDS011;64294;49.176;16.626;2023-07-02T05:22:37;7.75;;;5.30;;
75680;SDS011;64294;49.176;16.626;2023-07-02T05:25:03;9.70;;;5.05;;
75680;SDS011;64294;49.176;16.626;2023-07-02T05:27:28;10.25;;;5.15;;
75680;SDS011;64294;49.176;16.626;2023-07-02T05:29:54;10.32;;;5.65;;
75680;SDS011;64294;49.176;16.626;2023-07-02T05:32:19;10.00;;;4.95;;
75680;SDS011;64294;49.176;16.626;2023-07-02T05:34:45;18.35;;;6.57;;
75680;SDS011;64294;49.176;16.626;2023-07-02T05:37:10;11.38;;;5.45;;
75680;SDS011;64294;49.176;16.626;2023-07-02T05:39:35;11.68;;;4.95;;
75680;SDS011;64294;49.176;16.626;2023-07-02T05:42:01;11.38;;;5.55;;
75680;SDS011;64294;49.176;16.626;2023-07-02T05:44:26;8.50;;;5.20;;
75680;SDS011;64294;49.176;16.626;2023-07-02T05:46:52;12.23;;;5.30;;
75680;SDS011;64294;49.176;16.626;2023-07-02T05:49:17;11.60;;;5.00;;
75680;SDS011;64294;49.176;16.626;2023-07-02T05:51:43;10.90;;;4.82;;
75680;SDS011;64294;49.176;16.626;2023-07-02T05:54:08;11.85;;;4.88;;
75680;SDS011;64294;49.176;16.626;2023-07-02T05:56:34;10.38;;;4.35;;
75680;SDS011;64294;49.176;16.626;2023-07-02T05:59:01;13.85;;;4.65;;
75680;SDS011;64294;49.176;16.626;2023-07-02T06:01:27;10.15;;;4.30;;
75680;SDS011;64294;49.176;16.626;2023-07-02T06:03:52;9.30;;;3.40;;
75680;SDS011;64294;49.176;16.626;2023-07-02T06:06:18;6.20;;;2.72;;
75680;SDS011;64294;49.176;16.626;2023-07-02T06:08:43;6.40;;;2.78;;
75680;SDS011;64294;49.176;16.626;2023-07-02T06:11:09;4.57;;;2.40;;
75680;SDS011;64294;49.176;16.626;2023-07-02T06:13:35;5.32;;;2.50;;
75680;SDS011;64294;49.176;16.626;2023-07-02T06:16:01;5.22;;;2.67;;
75680;SDS011;64294;49.176;16.626;2023-07-02T06:18:26;4.38;;;2.50;;
75680;SDS011;64294;49.176;16.626;2023-07-02T06:20:52;3.75;;;2.40;;
75680;SDS011;64294;49.176;16.626;2023-07-02T06:23:17;4.68;;;2.72;;
75680;SDS011;64294;49.176;16.626;2023-07-02T06:25:42;4.30;;;2.60;;
75680;SDS011;64294;49.176;16.626;2023-07-02T06:28:09;6.07;;;2.67;;
75680;SDS011;64294;49.176;16.626;2023-07-02T06:30:34;3.47;;;2.30;;
75680;SDS011;64294;49.176;16.626;2023-07-02T06:33:00;4.90;;;2.42;;
75680;SDS011;64294;49.176;16.626;2023-07-02T06:35:25;4.45;;;2.38;;
75680;SDS011;64294;49.176;16.626;2023-07-02T06:37:51;4.72;;;2.38;;
75680;SDS011;64294;49.176;16.626;2023-07-02T06:40:16;5.78;;;2.38;;
75680;SDS011;64294;49.176;16.626;2023-07-02T06:42:42;5.50;;;2.55;;
75680;SDS011;64294;49.176;16.626;2023-07-02T06:45:07;4.40;;;2.78;;
75680;SDS011;64294;49.176;16.626;2023-07-02T06:47:33;9.45;;;3.00;;
75680;SDS011;64294;49.176;16.626;2023-07-02T06:49:58;6.85;;;3.00;;
75680;SDS011;64294;49.176;16.626;2023-07-02T06:52:24;5.28;;;2.85;;
75680;SDS011;64294;49.176;16.626;2023-07-02T06:54:49;4.40;;;2.60;;
75680;SDS011;64294;49.176;16.626;2023-07-02T06:57:15;5.97;;;2.55;;
75680;SDS011;64294;49.176;16.626;2023-07-02T06:59:41;4.25;;;2.60;;
75680;SDS011;64294;49.176;16.626;2023-07-02T07:02:06;4.85;;;2.60;;
75680;SDS011;64294;49.176;16.626;2023-07-02T07:04:32;4.78;;;2.50;;
75680;SDS011;64294;49.176;16.626;2023-07-02T07:06:59;3.45;;;2.38;;
75680;SDS011;64294;49.176;16.626;2023-07-02T07:09:25;4.30;;;2.28;;
75680;SDS011;64294;49.176;16.626;2023-07-02T07:11:53;3.58;;;2.30;;
75680;SDS011;64294;49.176;16.626;2023-07-02T07:14:19;4.90;;;2.50;;
75680;SDS011;64294;49.176;16.626;2023-07-02T07:16:44;4.95;;;2.75;;
75680;SDS011;64294;49.176;16.626;2023-07-02T07:19:10;5.32;;;2.30;;
75680;SDS011;64294;49.176;16.626;2023-07-02T07:21:35;4.85;;;3.15;;
75680;SDS011;64294;49.176;16.626;2023-07-02T07:24:00;4.68;;;2.63;;
75680;SDS011;64294;49.176;16.626;2023-07-02T07:26:26;3.70;;;2.28;;
75680;SDS011;64294;49.176;16.626;2023-07-02T07:28:51;3.78;;;2.17;;
75680;SDS011;64294;49.176;16.626;2023-07-02T07:31:19;5.18;;;2.30;;
75680;SDS011;64294;49.176;16.626;2023-07-02T07:33:45;3.55;;;2.40;;
75680;SDS011;64294;49.176;16.626;2023-07-02T07:36:10;6.95;;;2.78;;
75680;SDS011;64294;49.176;16.626;2023-07-02T07:38:35;6.40;;;2.92;;
75680;SDS011;64294;49.176;16.626;2023-07-02T07:41:01;5.10;;;2.75;;
75680;SDS011;64294;49.176;16.626;2023-07-02T07:43:26;4.57;;;2.50;;
75680;SDS011;64294;49.176;16.626;2023-07-02T07:45:52;3.67;;;2.28;;
75680;SDS011;64294;49.176;16.626;2023-07-02T07:48:17;3.28;;;2.47;;
75680;SDS011;64294;49.176;16.626;2023-07-02T07:50:43;4.95;;;2.40;;
75680;SDS011;64294;49.176;16.626;2023-07-02T07:53:08;4.22;;;2.33;;
75680;SDS011;64294;49.176;16.626;2023-07-02T07:55:33;3.60;;;2.20;;
75680;SDS011;64294;49.176;16.626;2023-07-02T07:57:59;3.42;;;2.10;;
75680;SDS011;64294;49.176;16.626;2023-07-02T08:00:24;3.95;;;2.08;;
75680;SDS011;64294;49.176;16.626;2023-07-02T08:02:51;3.28;;;2.00;;
75680;SDS011;64294;49.176;16.626;2023-07-02T08:05:24;3.10;;;1.83;;
75680;SDS011;64294;49.176;16.626;2023-07-02T08:07:50;2.30;;;1.63;;
75680;SDS011;64294;49.176;16.626;2023-07-02T08:10:16;2.28;;;1.50;;
75680;SDS011;64294;49.176;16.626;2023-07-02T08:12:41;2.75;;;1.60;;
75680;SDS011;64294;49.176;16.626;2023-07-02T08:15:07;2.08;;;1.77;;
75680;SDS011;64294;49.176;16.626;2023-07-02T08:17:32;3.38;;;1.70;;
75680;SDS011;64294;49.176;16.626;2023-07-02T08:19:59;2.38;;;1.80;;
75680;SDS011;64294;49.176;16.626;2023-07-02T08:22:24;2.10;;;1.67;;
75680;SDS011;64294;49.176;16.626;2023-07-02T08:24:50;4.75;;;1.60;;
75680;SDS011;64294;49.176;16.626;2023-07-02T08:27:15;4.47;;;1.50;;
75680;SDS011;64294;49.176;16.626;2023-07-02T08:29:45;1.88;;;1.65;;
75680;SDS011;64294;49.176;16.626;2023-07-02T08:32:14;2.03;;;1.45;;
75680;SDS011;64294;49.176;16.626;2023-07-02T08:34:40;3.92;;;1.60;;
75680;SDS011;64294;49.176;16.626;2023-07-02T08:37:05;3.38;;;1.50;;
75680;SDS011;64294;49.176;16.626;2023-07-02T08:39:31;5.05;;;1.50;;
75680;SDS011;64294;49.176;16.626;2023-07-02T08:41:56;2.03;;;1.60;;
75680;SDS011;64294;49.176;16.626;2023-07-02T08:44:22;2.20;;;1.65;;
75680;SDS011;64294;49.176;16.626;2023-07-02T08:46:47;2.05;;;1.50;;
75680;SDS011;64294;49.176;16.626;2023-07-02T08:49:15;2.10;;;1.50;;
75680;SDS011;64294;49.176;16.626;2023-07-02T08:51:42;2.20;;;1.50;;
75680;SDS011;64294;49.176;16.626;2023-07-02T08:54:09;2.22;;;1.80;;
75680;SDS011;64294;49.176;16.626;2023-07-02T08:56:35;1.70;;;1.55;;
75680;SDS011;64294;49.176;16.626;2023-07-02T08:59:00;2.00;;;1.73;;
75680;SDS011;64294;49.176;16.626;2023-07-02T09:01:26;2.47;;;1.60;;
75680;SDS011;64294;49.176;16.626;2023-07-02T09:03:58;2.40;;;1.80;;
75680;SDS011;64294;49.176;16.626;2023-07-02T09:06:27;2.08;;;1.77;;
75680;SDS011;64294;49.176;16.626;2023-07-02T09:08:52;2.78;;;1.75;;
75680;SDS011;64294;49.176;16.626;2023-07-02T09:11:18;2.47;;;1.95;;
75680;SDS011;64294;49.176;16.626;2023-07-02T09:13:52;2.25;;;1.73;;
75680;SDS011;64294;49.176;16.626;2023-07-02T09:21:25;4.75;;;2.30;;
75680;SDS011;64294;49.176;16.626;2023-07-02T09:23:51;3.47;;;2.45;;
75680;SDS011;64294;49.176;16.626;2023-07-02T09:26:22;3.90;;;2.28;;
75680;SDS011;64294;49.176;16.626;2023-07-02T09:28:48;5.32;;;2.78;;
75680;SDS011;64294;49.176;16.626;2023-07-02T09:31:14;6.45;;;3.15;;
75680;SDS011;64294;49.176;16.626;2023-07-02T09:33:39;5.20;;;3.00;;
75680;SDS011;64294;49.176;16.626;2023-07-02T09:36:05;5.25;;;2.78;;
75680;SDS011;64294;49.176;16.626;2023-07-02T09:38:31;5.00;;;2.60;;
75680;SDS011;64294;49.176;16.626;2023-07-02T09:40:56;3.97;;;2.38;;
75680;SDS011;64294;49.176;16.626;2023-07-02T09:43:22;3.60;;;2.30;;
75680;SDS011;64294;49.176;16.626;2023-07-02T09:45:52;3.85;;;2.30;;
75680;SDS011;64294;49.176;16.626;2023-07-02T09:48:20;2.95;;;2.22;;
75680;SDS011;64294;49.176;16.626;2023-07-02T09:50:52;5.43;;;2.60;;
75680;SDS011;64294;49.176;16.626;2023-07-02T09:53:19;3.92;;;1.85;;
75680;SDS011;64294;49.176;16.626;2023-07-02T09:55:45;2.50;;;2.10;;
75680;SDS011;64294;49.176;16.626;2023-07-02T09:58:11;3.47;;;2.08;;
75680;SDS011;64294;49.176;16.626;2023-07-02T10:00:39;1.85;;;1.73;;
75680;SDS011;64294;49.176;16.626;2023-07-02T10:03:06;2.38;;;1.83;;
75680;SDS011;64294;49.176;16.626;2023-07-02T10:05:32;2.40;;;2.10;;
75680;SDS011;64294;49.176;16.626;2023-07-02T10:07:59;3.10;;;1.90;;
75680;SDS011;64294;49.176;16.626;2023-07-02T10:10:38;4.30;;;2.10;;
75680;SDS011;64294;49.176;16.626;2023-07-02T10:13:04;5.05;;;2.22;;
75680;SDS011;64294;49.176;16.626;2023-07-02T10:15:30;5.75;;;2.00;;
75680;SDS011;64294;49.176;16.626;2023-07-02T10:18:02;3.53;;;2.00;;
75680;SDS011;64294;49.176;16.626;2023-07-02T10:20:33;4.63;;;2.00;;
75680;SDS011;64294;49.176;16.626;2023-07-02T10:23:02;2.60;;;2.05;;
75680;SDS011;64294;49.176;16.626;2023-07-02T10:25:29;8.65;;;2.30;;
75680;SDS011;64294;49.176;16.626;2023-07-02T10:27:56;2.50;;;2.10;;
75680;SDS011;64294;49.176;16.626;2023-07-02T10:30:35;2.53;;;1.95;;
75680;SDS011;64294;49.176;16.626;2023-07-02T10:33:11;2.22;;;1.80;;
75680;SDS011;64294;49.176;16.626;2023-07-02T10:35:38;3.83;;;2.10;;
75680;SDS011;64294;49.176;16.626;2023-07-02T10:38:06;4.40;;;2.20;;
75680;SDS011;64294;49.176;16.626;2023-07-02T10:40:32;3.45;;;2.00;;
75680;SDS011;64294;49.176;16.626;2023-07-02T10:42:58;3.42;;;1.95;;
75680;SDS011;64294;49.176;16.626;2023-07-02T10:45:35;5.65;;;1.92;;
75680;SDS011;64294;49.176;16.626;2023-07-02T10:48:01;2.90;;;2.03;;
75680;SDS011;64294;49.176;16.626;2023-07-02T10:50:29;4.07;;;1.75;;
75680;SDS011;64294;49.176;16.626;2023-07-02T10:52:56;7.43;;;2.28;;
75680;SDS011;64294;49.176;16.626;2023-07-02T10:55:22;2.22;;;1.83;;
75680;SDS011;64294;49.176;16.626;2023-07-02T10:57:49;4.80;;;2.30;;
75680;SDS011;64294;49.176;16.626;2023-07-02T11:00:18;3.60;;;2.00;;
75680;SDS011;64294;49.176;16.626;2023-07-02T11:02:44;3.58;;;2.00;;
75680;SDS011;64294;49.176;16.626;2023-07-02T11:05:10;4.90;;;1.85;;
75680;SDS011;64294;49.176;16.626;2023-07-02T11:07:40;5.35;;;2.20;;
75680;SDS011;64294;49.176;16.626;2023-07-02T11:10:07;5.35;;;2.08;;
75680;SDS011;64294;49.176;16.626;2023-07-02T11:12:34;3.38;;;1.98;;
75680;SDS011;64294;49.176;16.626;2023-07-02T11:15:10;2.80;;;1.73;;
75680;SDS011;64294;49.176;16.626;2023-07-02T11:17:36;3.17;;;1.90;;
75680;SDS011;64294;49.176;16.626;2023-07-02T11:20:02;2.85;;;1.83;;
75680;SDS011;64294;49.176;16.626;2023-07-02T11:22:31;3.15;;;2.10;;
75680;SDS011;64294;49.176;16.626;2023-07-02T11:25:12;2.85;;;2.10;;
75680;SDS011;64294;49.176;16.626;2023-07-02T11:27:39;3.28;;;2.08;;
75680;SDS011;64294;49.176;16.626;2023-07-02T11:30:06;2.95;;;1.80;;
75680;SDS011;64294;49.176;16.626;2023-07-02T11:32:35;2.47;;;1.80;;
75680;SDS011;64294;49.176;16.626;2023-07-02T11:35:13;2.53;;;1.80;;
75680;SDS011;64294;49.176;16.626;2023-07-02T11:37:39;4.07;;;1.83;;
75680;SDS011;64294;49.176;16.626;2023-07-02T11:40:04;2.45;;;1.70;;
75680;SDS011;64294;49.176;16.626;2023-07-02T11:42:30;2.75;;;1.65;;
75680;SDS011;64294;49.176;16.626;2023-07-02T11:44:55;3.70;;;1.75;;
75680;SDS011;64294;49.176;16.626;2023-07-02T11:47:21;2.42;;;1.80;;
75680;SDS011;64294;49.176;16.626;2023-07-02T11:49:46;6.05;;;1.70;;
75680;SDS011;64294;49.176;16.626;2023-07-02T11:52:12;2.10;;;1.73;;
75680;SDS011;64294;49.176;16.626;2023-07-02T11:54:39;3.17;;;1.70;;
75680;SDS011;64294;49.176;16.626;2023-07-02T11:57:05;1.73;;;1.63;;
75680;SDS011;64294;49.176;16.626;2023-07-02T11:59:31;1.95;;;1.73;;
75680;SDS011;64294;49.176;16.626;2023-07-02T12:01:56;3.45;;;1.80;;
75680;SDS011;64294;49.176;16.626;2023-07-02T12:04:22;3.08;;;1.70;;
75680;SDS011;64294;49.176;16.626;2023-07-02T12:06:47;2.63;;;1.63;;
75680;SDS011;64294;49.176;16.626;2023-07-02T12:09:13;3.03;;;1.80;;
75680;SDS011;64294;49.176;16.626;2023-07-02T12:11:38;2.40;;;1.48;;
75680;SDS011;64294;49.176;16.626;2023-07-02T12:14:04;4.07;;;1.70;;
75680;SDS011;64294;49.176;16.626;2023-07-02T12:16:29;3.22;;;1.77;;
75680;SDS011;64294;49.176;16.626;2023-07-02T12:18:55;4.93;;;1.95;;
75680;SDS011;64294;49.176;16.626;2023-07-02T12:21:20;2.35;;;1.70;;
75680;SDS011;64294;49.176;16.626;2023-07-02T12:23:48;3.15;;;1.60;;
75680;SDS011;64294;49.176;16.626;2023-07-02T12:26:14;3.10;;;1.75;;
75680;SDS011;64294;49.176;16.626;2023-07-02T12:28:39;2.80;;;1.55;;
75680;SDS011;64294;49.176;16.626;2023-07-02T12:31:05;2.55;;;1.58;;
75680;SDS011;64294;49.176;16.626;2023-07-02T12:33:30;2.92;;;1.45;;
75680;SDS011;64294;49.176;16.626;2023-07-02T12:35:55;2.63;;;1.67;;
75680;SDS011;64294;49.176;16.626;2023-07-02T12:38:21;3.13;;;1.50;;
75680;SDS011;64294;49.176;16.626;2023-07-02T12:40:47;2.50;;;1.70;;
75680;SDS011;64294;49.176;16.626;2023-07-02T12:43:13;1.95;;;1.55;;
75680;SDS011;64294;49.176;16.626;2023-07-02T12:45:39;5.53;;;1.80;;
75680;SDS011;64294;49.176;16.626;2023-07-02T12:48:04;2.53;;;1.58;;
75680;SDS011;64294;49.176;16.626;2023-07-02T12:50:30;2.53;;;1.65;;
75680;SDS011;64294;49.176;16.626;2023-07-02T12:52:55;3.78;;;1.80;;
75680;SDS011;64294;49.176;16.626;2023-07-02T12:55:21;5.22;;;1.70;;
75680;SDS011;64294;49.176;16.626;2023-07-02T12:57:46;4.85;;;2.03;;
75680;SDS011;64294;49.176;16.626;2023-07-02T13:00:12;4.53;;;1.70;;
75680;SDS011;64294;49.176;16.626;2023-07-02T13:02:37;3.58;;;1.67;;
75680;SDS011;64294;49.176;16.626;2023-07-02T13:05:03;3.45;;;1.80;;
75680;SDS011;64294;49.176;16.626;2023-07-02T13:07:29;4.07;;;1.85;;
75680;SDS011;64294;49.176;16.626;2023-07-02T13:09:55;4.45;;;2.00;;
75680;SDS011;64294;49.176;16.626;2023-07-02T13:12:21;7.32;;;1.83;;
75680;SDS011;64294;49.176;16.626;2023-07-02T13:14:47;4.10;;;2.03;;
75680;SDS011;64294;49.176;16.626;2023-07-02T13:17:12;3.85;;;1.90;;
75680;SDS011;64294;49.176;16.626;2023-07-02T13:19:37;6.72;;;2.50;;
75680;SDS011;64294;49.176;16.626;2023-07-02T13:22:03;8.30;;;2.10;;
75680;SDS011;64294;49.176;16.626;2023-07-02T13:24:32;4.75;;;2.10;;
75680;SDS011;64294;49.176;16.626;2023-07-02T13:27:00;3.38;;;2.22;;
75680;SDS011;64294;49.176;16.626;2023-07-02T13:29:27;7.78;;;2.13;;
75680;SDS011;64294;49.176;16.626;2023-07-02T13:31:53;6.90;;;2.28;;
75680;SDS011;64294;49.176;16.626;2023-07-02T13:34:18;7.55;;;2.30;;
75680;SDS011;64294;49.176;16.626;2023-07-02T13:36:43;3.88;;;1.90;;
75680;SDS011;64294;49.176;16.626;2023-07-02T13:39:09;5.70;;;2.38;;
75680;SDS011;64294;49.176;16.626;2023-07-02T13:41:34;3.60;;;2.25;;
75680;SDS011;64294;49.176;16.626;2023-07-02T13:44:00;7.80;;;2.60;;
75680;SDS011;64294;49.176;16.626;2023-07-02T13:46:26;7.45;;;2.33;;
75680;SDS011;64294;49.176;16.626;2023-07-02T13:48:51;7.20;;;2.63;;
75680;SDS011;64294;49.176;16.626;2023-07-02T13:51:16;6.25;;;2.53;;
75680;SDS011;64294;49.176;16.626;2023-07-02T13:53:42;7.03;;;3.28;;
75680;SDS011;64294;49.176;16.626;2023-07-02T13:56:07;4.55;;;2.40;;
75680;SDS011;64294;49.176;16.626;2023-07-02T13:58:45;4.43;;;2.45;;
75680;SDS011;64294;49.176;16.626;2023-07-02T14:01:20;6.95;;;2.72;;
75680;SDS011;64294;49.176;16.626;2023-07-02T14:03:45;6.50;;;2.90;;
75680;SDS011;64294;49.176;16.626;2023-07-02T14:06:11;4.30;;;2.60;;
75680;SDS011;64294;49.176;16.626;2023-07-02T14:08:36;8.90;;;2.97;;
75680;SDS011;64294;49.176;16.626;2023-07-02T14:11:02;5.28;;;2.90;;
75680;SDS011;64294;49.176;16.626;2023-07-02T14:13:27;5.60;;;2.75;;
75680;SDS011;64294;49.176;16.626;2023-07-02T14:15:53;5.07;;;2.90;;
75680;SDS011;64294;49.176;16.626;2023-07-02T14:18:18;6.50;;;3.00;;
75680;SDS011;64294;49.176;16.626;2023-07-02T14:20:44;5.82;;;3.05;;
75680;SDS011;64294;49.176;16.626;2023-07-02T14:23:09;5.25;;;2.80;;
75680;SDS011;64294;49.176;16.626;2023-07-02T14:25:35;6.88;;;3.00;;
75680;SDS011;64294;49.176;16.626;2023-07-02T14:28:00;6.93;;;3.60;;
75680;SDS011;64294;49.176;16.626;2023-07-02T14:30:25;5.45;;;3.00;;
75680;SDS011;64294;49.176;16.626;2023-07-02T14:32:51;4.85;;;3.20;;
75680;SDS011;64294;49.176;16.626;2023-07-02T14:35:16;6.95;;;2.90;;